sensor_id;sensor_type;location;lat;lon;timestamp;P1;durP1;ratioP1;P2;durP2;ratioP2
32705;SDS011;19094;50.972;3.538;2023-03-08T00:00:04;18.63;;;10.75;;
32705;SDS011;19094;50.972;3.538;2023-03-08T00:02:36;17.63;;;10.23;;
32705;SDS011;19094;50.972;3.538;2023-03-08T00:05:02;20.00;;;11.25;;
32705;SDS011;19094;50.972;3.538;2023-03-08T00:07:28;18.40;;;9.50;;
32705;SDS011;19094;50.972;3.538;2023-03-08T00:09:54;17.73;;;9.88;;
32705;SDS011;19094;50.972;3.538;2023-03-08T00:12:20;19.00;;;10.02;;
32705;SDS011;19094;50.972;3.538;2023-03-08T00:14:47;18.98;;;10.38;;
32705;SDS011;19094;50.972;3.538;2023-03-08T00:17:13;17.45;;;10.82;;
32705;SDS011;19094;50.972;3.538;2023-03-08T00:19:39;19.75;;;10.73;;
32705;SDS011;19094;50.972;3.538;2023-03-08T00:22:05;20.45;;;11.40;;
32705;SDS011;19094;50.972;3.538;2023-03-08T00:24:31;19.42;;;11.23;;
32705;SDS011;19094;50.972;3.538;2023-03-08T00:26:56;20.67;;;11.65;;
32705;SDS011;19094;50.972;3.538;2023-03-08T00:29:22;19.30;;;10.55;;
32705;SDS011;19094;50.972;3.538;2023-03-08T00:31:48;21.45;;;11.65;;
32705;SDS011;19094;50.972;3.538;2023-03-08T00:34:13;21.55;;;11.50;;
32705;SDS011;19094;50.972;3.538;2023-03-08T00:36:39;19.02;;;10.90;;
32705;SDS011;19094;50.972;3.538;2023-03-08T00:39:05;20.10;;;10.77;;
32705;SDS011;19094;50.972;3.538;2023-03-08T00:41:31;24.63;;;12.38;;
32705;SDS011;19094;50.972;3.538;2023-03-08T00:43:57;22.05;;;11.88;;
32705;SDS011;19094;50.972;3.538;2023-03-08T00:46:23;22.27;;;12.82;;
32705;SDS011;19094;50.972;3.538;2023-03-08T00:48:50;20.58;;;12.40;;
32705;SDS011;19094;50.972;3.538;2023-03-08T00:51:16;22.42;;;12.20;;
32705;SDS011;19094;50.972;3.538;2023-03-08T00:53:43;19.73;;;11.30;;
32705;SDS011;19094;50.972;3.538;2023-03-08T00:56:09;22.02;;;12.63;;
32705;SDS011;19094;50.972;3.538;2023-03-08T00:58:35;21.88;;;11.95;;
32705;SDS011;19094;50.972;3.538;2023-03-08T01:01:02;21.70;;;11.80;;
32705;SDS011;19094;50.972;3.538;2023-03-08T01:03:28;22.23;;;12.55;;
32705;SDS011;19094;50.972;3.538;2023-03-08T01:05:54;23.98;;;12.40;;
32705;SDS011;19094;50.972;3.538;2023-03-08T01:08:22;23.75;;;11.88;;
32705;SDS011;19094;50.972;3.538;2023-03-08T01:10:52;25.58;;;13.30;;
32705;SDS011;19094;50.972;3.538;2023-03-08T01:13:23;25.27;;;13.00;;
32705;SDS011;19094;50.972;3.538;2023-03-08T01:15:50;24.00;;;12.40;;
32705;SDS011;19094;50.972;3.538;2023-03-08T01:18:16;24.30;;;13.60;;
32705;SDS011;19094;50.972;3.538;2023-03-08T01:20:42;23.35;;;12.95;;
32705;SDS011;19094;50.972;3.538;2023-03-08T01:23:08;23.60;;;12.48;;
32705;SDS011;19094;50.972;3.538;2023-03-08T01:25:34;24.95;;;13.85;;
32705;SDS011;19094;50.972;3.538;2023-03-08T01:28:00;27.13;;;14.40;;
32705;SDS011;19094;50.972;3.538;2023-03-08T01:30:26;24.25;;;13.60;;
32705;SDS011;19094;50.972;3.538;2023-03-08T01:32:52;26.88;;;14.27;;
32705;SDS011;19094;50.972;3.538;2023-03-08T01:35:18;27.30;;;14.25;;
32705;SDS011;19094;50.972;3.538;2023-03-08T01:37:43;25.45;;;14.30;;
32705;SDS011;19094;50.972;3.538;2023-03-08T01:40:10;27.80;;;13.27;;
32705;SDS011;19094;50.972;3.538;2023-03-08T01:42:39;26.42;;;13.70;;
32705;SDS011;19094;50.972;3.538;2023-03-08T01:45:05;26.15;;;13.57;;
32705;SDS011;19094;50.972;3.538;2023-03-08T01:48:09;26.07;;;13.37;;
32705;SDS011;19094;50.972;3.538;2023-03-08T01:50:36;24.35;;;13.43;;
32705;SDS011;19094;50.972;3.538;2023-03-08T01:53:03;23.92;;;12.52;;
32705;SDS011;19094;50.972;3.538;2023-03-08T01:55:29;22.83;;;12.65;;
32705;SDS011;19094;50.972;3.538;2023-03-08T01:57:55;25.35;;;13.75;;
32705;SDS011;19094;50.972;3.538;2023-03-08T02:00:22;24.38;;;13.30;;
32705;SDS011;19094;50.972;3.538;2023-03-08T02:03:07;21.55;;;12.55;;
32705;SDS011;19094;50.972;3.538;2023-03-08T02:05:35;22.27;;;12.13;;
32705;SDS011;19094;50.972;3.538;2023-03-08T02:08:06;25.83;;;13.20;;
32705;SDS011;19094;50.972;3.538;2023-03-08T02:10:31;26.67;;;12.85;;
32705;SDS011;19094;50.972;3.538;2023-03-08T02:12:58;24.23;;;12.48;;
32705;SDS011;19094;50.972;3.538;2023-03-08T02:15:25;26.88;;;12.38;;
32705;SDS011;19094;50.972;3.538;2023-03-08T02:17:50;18.92;;;10.48;;
32705;SDS011;19094;50.972;3.538;2023-03-08T02:20:27;19.70;;;10.63;;
32705;SDS011;19094;50.972;3.538;2023-03-08T02:23:10;20.13;;;11.10;;
32705;SDS011;19094;50.972;3.538;2023-03-08T02:25:46;17.10;;;8.45;;
32705;SDS011;19094;50.972;3.538;2023-03-08T02:28:19;19.88;;;9.82;;
32705;SDS011;19094;50.972;3.538;2023-03-08T02:30:46;16.98;;;9.13;;
32705;SDS011;19094;50.972;3.538;2023-03-08T02:33:12;20.13;;;9.25;;
32705;SDS011;19094;50.972;3.538;2023-03-08T02:35:38;13.55;;;7.47;;
32705;SDS011;19094;50.972;3.538;2023-03-08T02:38:07;11.85;;;7.20;;
32705;SDS011;19094;50.972;3.538;2023-03-08T02:40:34;13.73;;;6.93;;
32705;SDS011;19094;50.972;3.538;2023-03-08T02:43:00;15.30;;;6.95;;
32705;SDS011;19094;50.972;3.538;2023-03-08T02:45:26;11.70;;;6.32;;
32705;SDS011;19094;50.972;3.538;2023-03-08T02:47:51;11.00;;;6.20;;
32705;SDS011;19094;50.972;3.538;2023-03-08T02:50:17;11.90;;;5.72;;
32705;SDS011;19094;50.972;3.538;2023-03-08T02:52:43;9.07;;;5.38;;
32705;SDS011;19094;50.972;3.538;2023-03-08T02:55:09;12.73;;;5.90;;
32705;SDS011;19094;50.972;3.538;2023-03-08T02:57:34;10.32;;;5.43;;
32705;SDS011;19094;50.972;3.538;2023-03-08T03:00:00;11.05;;;5.68;;
32705;SDS011;19094;50.972;3.538;2023-03-08T03:02:26;9.60;;;5.75;;
32705;SDS011;19094;50.972;3.538;2023-03-08T03:04:51;9.95;;;5.55;;
32705;SDS011;19094;50.972;3.538;2023-03-08T03:07:17;10.90;;;6.15;;
32705;SDS011;19094;50.972;3.538;2023-03-08T03:09:43;11.90;;;5.85;;
32705;SDS011;19094;50.972;3.538;2023-03-08T03:12:08;12.50;;;6.35;;
32705;SDS011;19094;50.972;3.538;2023-03-08T03:14:34;12.13;;;6.20;;
32705;SDS011;19094;50.972;3.538;2023-03-08T03:17:00;10.48;;;6.40;;
32705;SDS011;19094;50.972;3.538;2023-03-08T03:19:25;13.05;;;6.60;;
32705;SDS011;19094;50.972;3.538;2023-03-08T03:21:51;13.82;;;6.70;;
32705;SDS011;19094;50.972;3.538;2023-03-08T03:24:16;10.55;;;5.88;;
32705;SDS011;19094;50.972;3.538;2023-03-08T03:26:42;12.38;;;5.93;;
32705;SDS011;19094;50.972;3.538;2023-03-08T03:29:08;12.70;;;6.28;;
32705;SDS011;19094;50.972;3.538;2023-03-08T03:31:33;11.95;;;5.75;;
32705;SDS011;19094;50.972;3.538;2023-03-08T03:33:59;8.13;;;4.70;;
32705;SDS011;19094;50.972;3.538;2023-03-08T03:36:25;11.88;;;4.93;;
32705;SDS011;19094;50.972;3.538;2023-03-08T03:38:51;9.25;;;5.22;;
32705;SDS011;19094;50.972;3.538;2023-03-08T03:41:20;9.77;;;5.22;;
32705;SDS011;19094;50.972;3.538;2023-03-08T03:43:48;12.30;;;5.47;;
32705;SDS011;19094;50.972;3.538;2023-03-08T03:46:15;8.43;;;4.78;;
32705;SDS011;19094;50.972;3.538;2023-03-08T03:48:42;13.88;;;5.25;;
32705;SDS011;19094;50.972;3.538;2023-03-08T03:51:11;10.52;;;5.10;;
32705;SDS011;19094;50.972;3.538;2023-03-08T03:53:41;8.77;;;4.60;;
32705;SDS011;19094;50.972;3.538;2023-03-08T03:56:11;8.75;;;4.80;;
32705;SDS011;19094;50.972;3.538;2023-03-08T03:58:42;14.20;;;5.43;;
32705;SDS011;19094;50.972;3.538;2023-03-08T04:03:39;11.02;;;5.65;;
32705;SDS011;19094;50.972;3.538;2023-03-08T04:06:08;10.85;;;5.63;;
32705;SDS011;19094;50.972;3.538;2023-03-08T04:08:37;11.27;;;5.22;;
32705;SDS011;19094;50.972;3.538;2023-03-08T04:11:06;12.18;;;5.70;;
32705;SDS011;19094;50.972;3.538;2023-03-08T04:13:33;9.52;;;5.57;;
32705;SDS011;19094;50.972;3.538;2023-03-08T04:15:59;10.88;;;5.82;;
32705;SDS011;19094;50.972;3.538;2023-03-08T04:18:32;10.25;;;4.88;;
32705;SDS011;19094;50.972;3.538;2023-03-08T04:20:58;12.00;;;5.78;;
32705;SDS011;19094;50.972;3.538;2023-03-08T04:23:23;12.30;;;5.65;;
32705;SDS011;19094;50.972;3.538;2023-03-08T04:25:49;9.40;;;4.95;;
32705;SDS011;19094;50.972;3.538;2023-03-08T04:28:15;9.77;;;4.22;;
32705;SDS011;19094;50.972;3.538;2023-03-08T04:30:40;9.40;;;4.93;;
32705;SDS011;19094;50.972;3.538;2023-03-08T04:33:06;7.65;;;4.25;;
32705;SDS011;19094;50.972;3.538;2023-03-08T04:35:32;8.88;;;5.20;;
32705;SDS011;19094;50.972;3.538;2023-03-08T04:37:57;10.05;;;4.47;;
32705;SDS011;19094;50.972;3.538;2023-03-08T04:40:23;7.15;;;4.43;;
32705;SDS011;19094;50.972;3.538;2023-03-08T04:42:48;9.30;;;5.22;;
32705;SDS011;19094;50.972;3.538;2023-03-08T04:45:14;9.75;;;4.53;;
32705;SDS011;19094;50.972;3.538;2023-03-08T04:47:40;10.75;;;5.60;;
32705;SDS011;19094;50.972;3.538;2023-03-08T04:50:06;11.90;;;5.47;;
32705;SDS011;19094;50.972;3.538;2023-03-08T04:52:32;9.63;;;5.07;;
32705;SDS011;19094;50.972;3.538;2023-03-08T04:54:57;10.63;;;5.28;;
32705;SDS011;19094;50.972;3.538;2023-03-08T04:57:23;12.75;;;5.70;;
32705;SDS011;19094;50.972;3.538;2023-03-08T04:59:49;10.60;;;4.68;;
32705;SDS011;19094;50.972;3.538;2023-03-08T05:02:15;12.18;;;6.80;;
32705;SDS011;19094;50.972;3.538;2023-03-08T05:04:41;8.75;;;4.45;;
32705;SDS011;19094;50.972;3.538;2023-03-08T05:07:06;7.93;;;4.53;;
32705;SDS011;19094;50.972;3.538;2023-03-08T05:09:32;9.05;;;4.75;;
32705;SDS011;19094;50.972;3.538;2023-03-08T05:11:58;8.40;;;4.75;;
32705;SDS011;19094;50.972;3.538;2023-03-08T05:14:26;8.13;;;4.70;;
32705;SDS011;19094;50.972;3.538;2023-03-08T05:16:54;9.82;;;4.78;;
32705;SDS011;19094;50.972;3.538;2023-03-08T05:19:23;10.55;;;4.22;;
32705;SDS011;19094;50.972;3.538;2023-03-08T05:21:49;8.32;;;4.40;;
32705;SDS011;19094;50.972;3.538;2023-03-08T05:24:15;8.68;;;4.60;;
32705;SDS011;19094;50.972;3.538;2023-03-08T05:26:40;7.35;;;4.15;;
32705;SDS011;19094;50.972;3.538;2023-03-08T05:29:06;10.27;;;4.53;;
32705;SDS011;19094;50.972;3.538;2023-03-08T05:31:32;9.50;;;4.75;;
32705;SDS011;19094;50.972;3.538;2023-03-08T05:34:00;10.05;;;4.53;;
32705;SDS011;19094;50.972;3.538;2023-03-08T05:36:26;9.98;;;5.22;;
32705;SDS011;19094;50.972;3.538;2023-03-08T05:38:55;8.85;;;4.25;;
32705;SDS011;19094;50.972;3.538;2023-03-08T05:41:20;9.70;;;4.90;;
32705;SDS011;19094;50.972;3.538;2023-03-08T05:43:46;7.47;;;4.53;;
32705;SDS011;19094;50.972;3.538;2023-03-08T05:46:13;8.98;;;5.47;;
32705;SDS011;19094;50.972;3.538;2023-03-08T05:48:41;7.40;;;4.47;;
32705;SDS011;19094;50.972;3.538;2023-03-08T05:51:08;10.07;;;4.10;;
32705;SDS011;19094;50.972;3.538;2023-03-08T05:53:38;6.45;;;4.00;;
32705;SDS011;19094;50.972;3.538;2023-03-08T05:56:20;6.25;;;3.65;;
32705;SDS011;19094;50.972;3.538;2023-03-08T05:58:47;6.28;;;3.42;;
32705;SDS011;19094;50.972;3.538;2023-03-08T06:03:40;6.00;;;3.38;;
32705;SDS011;19094;50.972;3.538;2023-03-08T06:06:07;6.30;;;3.13;;
32705;SDS011;19094;50.972;3.538;2023-03-08T06:08:33;8.75;;;3.30;;
32705;SDS011;19094;50.972;3.538;2023-03-08T06:10:58;6.93;;;3.47;;
32705;SDS011;19094;50.972;3.538;2023-03-08T06:13:24;8.60;;;3.80;;
32705;SDS011;19094;50.972;3.538;2023-03-08T06:15:54;10.88;;;4.28;;
32705;SDS011;19094;50.972;3.538;2023-03-08T06:18:20;5.95;;;3.83;;
32705;SDS011;19094;50.972;3.538;2023-03-08T06:21:00;5.55;;;3.20;;
32705;SDS011;19094;50.972;3.538;2023-03-08T06:23:28;8.75;;;3.70;;
32705;SDS011;19094;50.972;3.538;2023-03-08T06:25:54;6.57;;;3.58;;
32705;SDS011;19094;50.972;3.538;2023-03-08T06:28:21;9.32;;;3.95;;
32705;SDS011;19094;50.972;3.538;2023-03-08T06:30:47;10.15;;;3.72;;
32705;SDS011;19094;50.972;3.538;2023-03-08T06:33:17;6.53;;;3.20;;
32705;SDS011;19094;50.972;3.538;2023-03-08T06:35:53;5.47;;;2.78;;
32705;SDS011;19094;50.972;3.538;2023-03-08T06:38:20;5.72;;;3.40;;
32705;SDS011;19094;50.972;3.538;2023-03-08T06:40:46;6.38;;;3.55;;
32705;SDS011;19094;50.972;3.538;2023-03-08T06:43:11;4.95;;;2.63;;
32705;SDS011;19094;50.972;3.538;2023-03-08T06:45:37;7.32;;;3.75;;
32705;SDS011;19094;50.972;3.538;2023-03-08T06:48:03;6.85;;;3.17;;
32705;SDS011;19094;50.972;3.538;2023-03-08T06:50:29;6.47;;;3.10;;
32705;SDS011;19094;50.972;3.538;2023-03-08T06:52:55;5.90;;;2.92;;
32705;SDS011;19094;50.972;3.538;2023-03-08T06:55:22;7.35;;;3.20;;
32705;SDS011;19094;50.972;3.538;2023-03-08T06:57:48;5.05;;;3.42;;
32705;SDS011;19094;50.972;3.538;2023-03-08T07:00:13;8.00;;;3.97;;
32705;SDS011;19094;50.972;3.538;2023-03-08T07:02:39;8.38;;;3.67;;
32705;SDS011;19094;50.972;3.538;2023-03-08T07:05:05;7.57;;;3.28;;
32705;SDS011;19094;50.972;3.538;2023-03-08T07:07:31;7.63;;;3.22;;
32705;SDS011;19094;50.972;3.538;2023-03-08T07:09:57;4.68;;;2.97;;
32705;SDS011;19094;50.972;3.538;2023-03-08T07:12:23;5.80;;;2.97;;
32705;SDS011;19094;50.972;3.538;2023-03-08T07:14:50;5.70;;;3.78;;
32705;SDS011;19094;50.972;3.538;2023-03-08T07:17:17;8.55;;;4.80;;
32705;SDS011;19094;50.972;3.538;2023-03-08T07:19:43;10.55;;;5.63;;
32705;SDS011;19094;50.972;3.538;2023-03-08T07:22:09;7.97;;;3.42;;
32705;SDS011;19094;50.972;3.538;2023-03-08T07:24:37;5.65;;;3.70;;
32705;SDS011;19094;50.972;3.538;2023-03-08T07:27:03;6.30;;;3.30;;
32705;SDS011;19094;50.972;3.538;2023-03-08T07:29:29;6.78;;;3.50;;
32705;SDS011;19094;50.972;3.538;2023-03-08T07:31:55;5.65;;;3.13;;
32705;SDS011;19094;50.972;3.538;2023-03-08T07:34:20;10.90;;;4.72;;
32705;SDS011;19094;50.972;3.538;2023-03-08T07:36:46;7.13;;;3.83;;
32705;SDS011;19094;50.972;3.538;2023-03-08T07:39:12;12.23;;;4.10;;
32705;SDS011;19094;50.972;3.538;2023-03-08T07:41:37;16.95;;;5.10;;
32705;SDS011;19094;50.972;3.538;2023-03-08T07:44:03;5.57;;;3.58;;
32705;SDS011;19094;50.972;3.538;2023-03-08T07:46:29;7.00;;;3.20;;
32705;SDS011;19094;50.972;3.538;2023-03-08T07:48:55;7.78;;;3.63;;
32705;SDS011;19094;50.972;3.538;2023-03-08T07:51:20;10.20;;;3.80;;
32705;SDS011;19094;50.972;3.538;2023-03-08T07:53:46;10.30;;;3.90;;
32705;SDS011;19094;50.972;3.538;2023-03-08T07:56:12;8.88;;;4.10;;
32705;SDS011;19094;50.972;3.538;2023-03-08T07:58:37;7.55;;;3.65;;
32705;SDS011;19094;50.972;3.538;2023-03-08T08:01:07;9.88;;;4.28;;
32705;SDS011;19094;50.972;3.538;2023-03-08T08:03:38;8.18;;;4.00;;
32705;SDS011;19094;50.972;3.538;2023-03-08T08:06:04;8.73;;;3.80;;
32705;SDS011;19094;50.972;3.538;2023-03-08T08:08:31;5.60;;;3.65;;
32705;SDS011;19094;50.972;3.538;2023-03-08T08:10:57;10.23;;;5.03;;
32705;SDS011;19094;50.972;3.538;2023-03-08T08:13:23;7.57;;;4.03;;
32705;SDS011;19094;50.972;3.538;2023-03-08T08:15:59;9.55;;;4.80;;
32705;SDS011;19094;50.972;3.538;2023-03-08T08:18:26;7.53;;;4.20;;
32705;SDS011;19094;50.972;3.538;2023-03-08T08:21:03;5.72;;;3.17;;
32705;SDS011;19094;50.972;3.538;2023-03-08T08:23:30;5.68;;;3.58;;
32705;SDS011;19094;50.972;3.538;2023-03-08T08:25:57;8.13;;;4.72;;
32705;SDS011;19094;50.972;3.538;2023-03-08T08:28:23;9.27;;;4.03;;
32705;SDS011;19094;50.972;3.538;2023-03-08T08:31:12;7.97;;;4.40;;
32705;SDS011;19094;50.972;3.538;2023-03-08T08:33:40;11.32;;;5.40;;
32705;SDS011;19094;50.972;3.538;2023-03-08T08:36:07;8.30;;;4.88;;
32705;SDS011;19094;50.972;3.538;2023-03-08T08:38:35;16.55;;;5.40;;
32705;SDS011;19094;50.972;3.538;2023-03-08T08:41:02;8.63;;;5.05;;
32705;SDS011;19094;50.972;3.538;2023-03-08T08:43:29;12.85;;;5.15;;
32705;SDS011;19094;50.972;3.538;2023-03-08T08:45:57;9.30;;;5.95;;
32705;SDS011;19094;50.972;3.538;2023-03-08T08:48:24;29.25;;;6.03;;
32705;SDS011;19094;50.972;3.538;2023-03-08T08:50:50;13.20;;;5.47;;
32705;SDS011;19094;50.972;3.538;2023-03-08T08:53:17;14.15;;;4.55;;
32705;SDS011;19094;50.972;3.538;2023-03-08T08:55:44;18.52;;;6.35;;
32705;SDS011;19094;50.972;3.538;2023-03-08T08:58:10;11.30;;;5.25;;
32705;SDS011;19094;50.972;3.538;2023-03-08T09:00:36;12.45;;;5.05;;
32705;SDS011;19094;50.972;3.538;2023-03-08T09:03:03;26.52;;;6.15;;
32705;SDS011;19094;50.972;3.538;2023-03-08T09:05:29;21.60;;;5.70;;
32705;SDS011;19094;50.972;3.538;2023-03-08T09:07:57;14.70;;;5.40;;
32705;SDS011;19094;50.972;3.538;2023-03-08T09:10:28;12.50;;;6.18;;
32705;SDS011;19094;50.972;3.538;2023-03-08T09:12:56;22.20;;;5.18;;
32705;SDS011;19094;50.972;3.538;2023-03-08T09:15:25;11.63;;;5.50;;
32705;SDS011;19094;50.972;3.538;2023-03-08T09:17:51;22.00;;;7.25;;
32705;SDS011;19094;50.972;3.538;2023-03-08T09:20:18;15.70;;;6.07;;
32705;SDS011;19094;50.972;3.538;2023-03-08T09:22:44;19.77;;;7.53;;
32705;SDS011;19094;50.972;3.538;2023-03-08T09:25:10;8.13;;;5.47;;
32705;SDS011;19094;50.972;3.538;2023-03-08T09:27:37;11.75;;;5.90;;
32705;SDS011;19094;50.972;3.538;2023-03-08T09:30:04;7.70;;;5.05;;
32705;SDS011;19094;50.972;3.538;2023-03-08T09:32:33;9.50;;;5.00;;
32705;SDS011;19094;50.972;3.538;2023-03-08T09:35:00;16.38;;;5.25;;
32705;SDS011;19094;50.972;3.538;2023-03-08T09:37:28;9.52;;;6.13;;
32705;SDS011;19094;50.972;3.538;2023-03-08T09:39:53;12.90;;;5.68;;
32705;SDS011;19094;50.972;3.538;2023-03-08T09:42:23;12.90;;;7.57;;
32705;SDS011;19094;50.972;3.538;2023-03-08T09:45:05;8.85;;;6.13;;
32705;SDS011;19094;50.972;3.538;2023-03-08T09:47:57;15.13;;;5.88;;
32705;SDS011;19094;50.972;3.538;2023-03-08T09:53:20;18.88;;;6.07;;
32705;SDS011;19094;50.972;3.538;2023-03-08T09:56:27;15.32;;;7.00;;
32705;SDS011;19094;50.972;3.538;2023-03-08T09:59:01;15.73;;;5.75;;
32705;SDS011;19094;50.972;3.538;2023-03-08T10:04:45;11.85;;;5.40;;
32705;SDS011;19094;50.972;3.538;2023-03-08T10:16:37;9.30;;;5.70;;
32705;SDS011;19094;50.972;3.538;2023-03-08T10:21:17;11.70;;;5.40;;
32705;SDS011;19094;50.972;3.538;2023-03-08T10:23:46;11.98;;;5.20;;
32705;SDS011;19094;50.972;3.538;2023-03-08T10:26:19;9.85;;;5.95;;
32705;SDS011;19094;50.972;3.538;2023-03-08T10:28:45;11.20;;;5.00;;
32705;SDS011;19094;50.972;3.538;2023-03-08T10:31:21;9.85;;;5.40;;
32705;SDS011;19094;50.972;3.538;2023-03-08T10:33:53;11.02;;;6.68;;
32705;SDS011;19094;50.972;3.538;2023-03-08T10:39:15;13.80;;;6.30;;
32705;SDS011;19094;50.972;3.538;2023-03-08T10:41:45;10.23;;;6.18;;
32705;SDS011;19094;50.972;3.538;2023-03-08T10:44:15;11.45;;;6.53;;
32705;SDS011;19094;50.972;3.538;2023-03-08T10:46:58;11.20;;;6.13;;
32705;SDS011;19094;50.972;3.538;2023-03-08T10:49:24;10.75;;;7.32;;
32705;SDS011;19094;50.972;3.538;2023-03-08T10:51:53;12.02;;;6.82;;
32705;SDS011;19094;50.972;3.538;2023-03-08T10:54:24;11.30;;;6.40;;
32705;SDS011;19094;50.972;3.538;2023-03-08T10:56:51;9.68;;;6.40;;
32705;SDS011;19094;50.972;3.538;2023-03-08T10:59:25;9.70;;;6.18;;
32705;SDS011;19094;50.972;3.538;2023-03-08T11:01:58;14.60;;;7.87;;
32705;SDS011;19094;50.972;3.538;2023-03-08T11:04:26;12.57;;;6.85;;
32705;SDS011;19094;50.972;3.538;2023-03-08T11:06:54;14.15;;;10.13;;
32705;SDS011;19094;50.972;3.538;2023-03-08T11:09:24;12.30;;;8.20;;
32705;SDS011;19094;50.972;3.538;2023-03-08T11:14:21;13.18;;;8.13;;
32705;SDS011;19094;50.972;3.538;2023-03-08T11:16:49;13.55;;;8.07;;
32705;SDS011;19094;50.972;3.538;2023-03-08T11:30:17;16.45;;;8.75;;
32705;SDS011;19094;50.972;3.538;2023-03-08T11:38:58;11.60;;;7.65;;
32705;SDS011;19094;50.972;3.538;2023-03-08T11:50:19;13.48;;;7.85;;
32705;SDS011;19094;50.972;3.538;2023-03-08T11:58:21;14.38;;;7.65;;
32705;SDS011;19094;50.972;3.538;2023-03-08T12:00:53;12.63;;;7.55;;
32705;SDS011;19094;50.972;3.538;2023-03-08T12:03:33;13.05;;;7.78;;
32705;SDS011;19094;50.972;3.538;2023-03-08T12:06:05;11.95;;;7.90;;
32705;SDS011;19094;50.972;3.538;2023-03-08T12:11:32;13.02;;;7.53;;
32705;SDS011;19094;50.972;3.538;2023-03-08T12:14:23;17.17;;;8.73;;
32705;SDS011;19094;50.972;3.538;2023-03-08T12:17:03;13.15;;;8.57;;
32705;SDS011;19094;50.972;3.538;2023-03-08T12:19:47;15.35;;;9.23;;
32705;SDS011;19094;50.972;3.538;2023-03-08T12:32:55;18.23;;;10.85;;
32705;SDS011;19094;50.972;3.538;2023-03-08T12:37:54;22.35;;;12.35;;
32705;SDS011;19094;50.972;3.538;2023-03-08T12:46:06;22.20;;;11.50;;
32705;SDS011;19094;50.972;3.538;2023-03-08T12:58:37;22.83;;;11.60;;
32705;SDS011;19094;50.972;3.538;2023-03-08T13:01:32;25.80;;;13.15;;
32705;SDS011;19094;50.972;3.538;2023-03-08T13:04:01;20.80;;;13.68;;
32705;SDS011;19094;50.972;3.538;2023-03-08T13:06:32;21.55;;;12.65;;
32705;SDS011;19094;50.972;3.538;2023-03-08T13:09:32;19.30;;;11.38;;
32705;SDS011;19094;50.972;3.538;2023-03-08T13:14:41;18.75;;;11.13;;
32705;SDS011;19094;50.972;3.538;2023-03-08T13:19:56;20.27;;;12.18;;
32705;SDS011;19094;50.972;3.538;2023-03-08T13:25:05;20.00;;;12.27;;
32705;SDS011;19094;50.972;3.538;2023-03-08T13:27:36;20.10;;;12.13;;
32705;SDS011;19094;50.972;3.538;2023-03-08T13:30:17;22.15;;;13.32;;
32705;SDS011;19094;50.972;3.538;2023-03-08T13:32:48;21.33;;;12.88;;
32705;SDS011;19094;50.972;3.538;2023-03-08T13:35:15;21.85;;;13.75;;
32705;SDS011;19094;50.972;3.538;2023-03-08T13:37:42;22.05;;;13.50;;
32705;SDS011;19094;50.972;3.538;2023-03-08T13:40:18;23.95;;;13.25;;
32705;SDS011;19094;50.972;3.538;2023-03-08T13:42:51;26.13;;;14.05;;
32705;SDS011;19094;50.972;3.538;2023-03-08T13:45:18;25.13;;;13.55;;
32705;SDS011;19094;50.972;3.538;2023-03-08T13:47:44;23.52;;;14.07;;
32705;SDS011;19094;50.972;3.538;2023-03-08T13:53:22;28.08;;;17.42;;
32705;SDS011;19094;50.972;3.538;2023-03-08T13:55:51;25.90;;;15.13;;
32705;SDS011;19094;50.972;3.538;2023-03-08T14:01:03;28.35;;;16.13;;
32705;SDS011;19094;50.972;3.538;2023-03-08T14:03:38;27.92;;;15.63;;
32705;SDS011;19094;50.972;3.538;2023-03-08T14:08:40;24.55;;;14.70;;
32705;SDS011;19094;50.972;3.538;2023-03-08T14:11:06;28.20;;;15.80;;
32705;SDS011;19094;50.972;3.538;2023-03-08T14:13:38;27.92;;;16.20;;
32705;SDS011;19094;50.972;3.538;2023-03-08T14:16:07;27.23;;;16.38;;
32705;SDS011;19094;50.972;3.538;2023-03-08T14:18:45;25.35;;;14.65;;
32705;SDS011;19094;50.972;3.538;2023-03-08T14:21:21;30.17;;;16.48;;
32705;SDS011;19094;50.972;3.538;2023-03-08T14:23:51;34.38;;;18.70;;
32705;SDS011;19094;50.972;3.538;2023-03-08T14:26:52;30.88;;;17.70;;
32705;SDS011;19094;50.972;3.538;2023-03-08T14:31:51;36.00;;;20.38;;
32705;SDS011;19094;50.972;3.538;2023-03-08T14:34:39;49.75;;;23.98;;
32705;SDS011;19094;50.972;3.538;2023-03-08T14:39:47;44.50;;;23.38;;
32705;SDS011;19094;50.972;3.538;2023-03-08T14:42:22;34.97;;;19.33;;
32705;SDS011;19094;50.972;3.538;2023-03-08T14:44:59;36.10;;;21.08;;
32705;SDS011;19094;50.972;3.538;2023-03-08T14:47:31;45.95;;;24.33;;
32705;SDS011;19094;50.972;3.538;2023-03-08T14:52:28;58.63;;;26.70;;
32705;SDS011;19094;50.972;3.538;2023-03-08T14:54:56;46.38;;;20.77;;
32705;SDS011;19094;50.972;3.538;2023-03-08T14:57:22;51.50;;;22.20;;
32705;SDS011;19094;50.972;3.538;2023-03-08T14:59:51;62.42;;;26.17;;
32705;SDS011;19094;50.972;3.538;2023-03-08T15:02:20;52.78;;;24.23;;
32705;SDS011;19094;50.972;3.538;2023-03-08T15:04:45;62.35;;;27.80;;
32705;SDS011;19094;50.972;3.538;2023-03-08T15:07:21;53.08;;;25.50;;
32705;SDS011;19094;50.972;3.538;2023-03-08T15:09:48;46.30;;;23.00;;
32705;SDS011;19094;50.972;3.538;2023-03-08T15:12:15;42.42;;;21.70;;
32705;SDS011;19094;50.972;3.538;2023-03-08T15:14:42;39.65;;;20.48;;
32705;SDS011;19094;50.972;3.538;2023-03-08T15:17:08;44.55;;;23.60;;
32705;SDS011;19094;50.972;3.538;2023-03-08T15:19:34;42.67;;;21.48;;
32705;SDS011;19094;50.972;3.538;2023-03-08T15:22:00;38.17;;;19.88;;
32705;SDS011;19094;50.972;3.538;2023-03-08T15:24:28;33.40;;;18.20;;
32705;SDS011;19094;50.972;3.538;2023-03-08T15:26:54;39.85;;;22.88;;
32705;SDS011;19094;50.972;3.538;2023-03-08T15:29:28;41.60;;;21.80;;
32705;SDS011;19094;50.972;3.538;2023-03-08T15:31:56;34.85;;;21.75;;
32705;SDS011;19094;50.972;3.538;2023-03-08T15:34:22;34.22;;;17.90;;
32705;SDS011;19094;50.972;3.538;2023-03-08T15:36:48;35.00;;;18.83;;
32705;SDS011;19094;50.972;3.538;2023-03-08T15:39:15;36.42;;;18.77;;
32705;SDS011;19094;50.972;3.538;2023-03-08T15:41:41;32.60;;;16.92;;
32705;SDS011;19094;50.972;3.538;2023-03-08T15:44:07;31.77;;;16.15;;
32705;SDS011;19094;50.972;3.538;2023-03-08T15:46:32;27.98;;;16.23;;
32705;SDS011;19094;50.972;3.538;2023-03-08T15:48:58;29.38;;;16.90;;
32705;SDS011;19094;50.972;3.538;2023-03-08T15:51:29;29.02;;;17.08;;
32705;SDS011;19094;50.972;3.538;2023-03-08T15:53:59;24.52;;;13.88;;
32705;SDS011;19094;50.972;3.538;2023-03-08T15:56:25;25.92;;;14.68;;
32705;SDS011;19094;50.972;3.538;2023-03-08T15:58:52;28.23;;;15.52;;
32705;SDS011;19094;50.972;3.538;2023-03-08T16:01:19;22.83;;;13.07;;
32705;SDS011;19094;50.972;3.538;2023-03-08T16:03:45;24.77;;;13.88;;
32705;SDS011;19094;50.972;3.538;2023-03-08T16:06:12;29.55;;;15.23;;
32705;SDS011;19094;50.972;3.538;2023-03-08T16:08:39;33.30;;;17.25;;
32705;SDS011;19094;50.972;3.538;2023-03-08T16:11:06;28.98;;;15.27;;
32705;SDS011;19094;50.972;3.538;2023-03-08T16:13:33;31.02;;;16.15;;
32705;SDS011;19094;50.972;3.538;2023-03-08T16:15:59;30.67;;;15.73;;
32705;SDS011;19094;50.972;3.538;2023-03-08T16:18:27;31.05;;;16.95;;
32705;SDS011;19094;50.972;3.538;2023-03-08T16:20:54;26.63;;;14.93;;
32705;SDS011;19094;50.972;3.538;2023-03-08T16:23:19;29.17;;;14.82;;
32705;SDS011;19094;50.972;3.538;2023-03-08T16:25:55;30.45;;;14.70;;
32705;SDS011;19094;50.972;3.538;2023-03-08T16:28:35;23.92;;;14.10;;
32705;SDS011;19094;50.972;3.538;2023-03-08T16:31:01;27.45;;;15.30;;
32705;SDS011;19094;50.972;3.538;2023-03-08T16:33:27;30.65;;;13.70;;
32705;SDS011;19094;50.972;3.538;2023-03-08T16:35:53;26.23;;;14.15;;